Time;durP1;ratioP1;P1;durP2;ratioP2;P2;SDS_P1;SDS_P2;PMS_P1;PMS_P2;Temp;Humidity;BMP_temperature;BMP_pressure;BME280_temperature;BME280_humidity;BME280_pressure;Samples;Min_cycle;Max_cycle;Signal;HPM_P1;HPM_P2
2024/02/03 00:02:12;;;;;;;4.13;3.07;;;;;;;;;;4932619;29;20189;-89
2024/02/03 00:04:39;;;;;;;3.20;2.20;;;;;;;;;;4933066;29;20530;-88
2024/02/03 00:07:05;;;;;;;3.28;2.90;;;;;;;;;;4933968;29;20442;-89
2024/02/03 00:09:31;;;;;;;3.35;2.92;;;;;;;;;;4944287;29;20221;-89
2024/02/03 00:11:56;;;;;;;3.58;2.97;;;;;;;;;;4944976;29;20204;-88
2024/02/03 00:14:22;;;;;;;2.60;2.10;;;;;;;;;;4938953;29;20269;-90
2024/02/03 00:16:49;;;;;;;4.25;2.90;;;;;;;;;;4945115;29;20441;-88
2024/02/03 00:19:15;;;;;;;4.00;2.90;;;;;;;;;;4941616;29;20452;-88
2024/02/03 00:21:41;;;;;;;3.13;2.70;;;;;;;;;;4936944;29;20280;-89
2024/02/03 00:24:07;;;;;;;3.20;2.88;;;;;;;;;;4934266;29;20276;-90
2024/02/03 00:26:33;;;;;;;2.60;2.30;;;;;;;;;;4931882;29;20209;-90
2024/02/03 00:28:59;;;;;;;2.63;2.35;;;;;;;;;;4931767;29;20252;-90
2024/02/03 00:31:24;;;;;;;2.50;2.20;;;6.10;99.90;;;;;;4937516;29;20178;-89
2024/02/03 00:33:50;;;;;;;2.63;2.43;;;6.30;99.90;;;;;;4934543;29;20598;-88
2024/02/03 00:36:23;;;;;;;2.37;2.17;;;4.70;99.90;;;;;;4935366;29;20700;-90
2024/02/03 00:38:49;;;;;;;3.08;2.30;;;;;;;;;;4936256;29;20244;-89
2024/02/03 00:41:15;;;;;;;3.00;1.95;;;;;;;;;;4937739;29;20189;-89
2024/02/03 00:43:41;;;;;;;3.05;2.10;;;;;;;;;;4935343;29;20182;-89
2024/02/03 00:46:08;;;;;;;3.85;2.40;;;;;;;;;;4949982;29;20220;-91
2024/02/03 00:48:35;;;;;;;4.22;2.53;;;;;;;;;;4948518;29;20190;-90
2024/02/03 00:51:01;;;;;;;3.28;2.58;;;;;;;;;;4954441;28;20185;-90
2024/02/03 00:53:27;;;;;;;2.65;2.20;;;;;;;;;;4935539;29;20615;-89
2024/02/03 00:55:53;;;;;;;2.20;1.65;;;;;;;;;;4936634;29;20305;-90
2024/02/03 00:58:20;;;;;;;2.67;2.42;;;;;;;;;;4931613;29;20217;-89
2024/02/03 01:00:45;;;;;;;2.40;2.20;;;6.00;99.90;;;;;;4935281;29;20186;-89
2024/02/03 01:03:12;;;;;;;3.50;2.20;;;;;;;;;;4935026;29;20185;-89
2024/02/03 01:05:39;;;;;;;3.33;2.65;;;6.00;99.90;;;;;;4934157;29;20216;-89
2024/02/03 01:08:07;;;;;;;3.97;2.40;;;5.80;99.90;;;;;;4935082;29;20187;-89
2024/02/03 01:10:33;;;;;;;2.95;2.50;;;;;;;;;;4938277;29;20212;-89
2024/02/03 01:12:59;;;;;;;3.95;1.90;;;5.80;99.90;;;;;;4936198;29;20507;-89
2024/02/03 01:15:25;;;;;;;3.10;2.27;;;;;;;;;;4936056;29;20430;-89
2024/02/03 01:17:51;;;;;;;3.03;2.70;;;;;;;;;;4935790;29;20531;-90
2024/02/03 01:20:17;;;;;;;3.00;2.65;;;;;;;;;;4937316;29;20630;-89
2024/02/03 01:22:43;;;;;;;2.80;2.60;;;;;;;;;;4938594;29;20199;-91
2024/02/03 01:25:09;;;;;;;3.20;2.53;;;5.90;99.90;;;;;;4936781;29;20205;-89
2024/02/03 01:27:35;;;;;;;2.67;2.37;;;;;;;;;;4936327;29;20621;-89
2024/02/03 01:30:02;;;;;;;2.55;1.85;;;;;;;;;;4935397;29;20269;-89
2024/02/03 01:32:28;;;;;;;2.80;2.45;;;;;;;;;;4937451;29;20195;-91
2024/02/03 01:34:54;;;;;;;2.30;1.88;;;5.40;99.90;;;;;;4937582;29;20202;-88
2024/02/03 01:37:20;;;;;;;2.20;2.00;;;;;;;;;;4941093;29;20817;-89
2024/02/03 01:39:48;;;;;;;2.03;1.80;;;5.60;99.90;;;;;;4934754;29;20670;-89
2024/02/03 01:42:14;;;;;;;2.17;1.98;;;;;;;;;;4935614;29;20647;-89
2024/02/03 01:44:42;;;;;;;2.60;2.40;;;5.30;99.90;;;;;;4930183;29;20226;-90
2024/02/03 01:47:08;;;;;;;2.35;2.15;;;7.90;99.90;;;;;;4932726;29;20186;-89
2024/02/03 01:49:34;;;;;;;4.03;2.03;;;;;;;;;;4934067;29;20241;-89
2024/02/03 01:52:01;;;;;;;2.65;2.00;;;5.30;99.90;;;;;;4936573;29;20217;-89
2024/02/03 01:54:28;;;;;;;2.72;1.70;;;5.40;99.90;;;;;;4934034;29;20196;-90
2024/02/03 01:56:58;;;;;;;1.80;1.45;;;5.40;99.90;;;;;;4932406;29;20193;-90
2024/02/03 01:59:27;;;;;;;2.05;1.77;;;4.70;99.90;;;;;;4933060;29;20190;-89
2024/02/03 02:01:55;;;;;;;2.22;1.90;;;5.40;99.90;;;;;;4937369;29;20253;-89
2024/02/03 02:04:21;;;;;;;1.65;1.50;;;;;;;;;;4935778;29;20248;-90
2024/02/03 02:06:47;;;;;;;1.85;1.70;;;;;;;;;;4934935;29;20609;-89
2024/02/03 02:09:24;;;;;;;2.75;1.85;;;5.30;99.90;;;;;;4937706;29;20244;-89
2024/02/03 02:11:55;;;;;;;2.22;1.60;;;;;;;;;;4932770;29;20191;-89
2024/02/03 02:14:22;;;;;;;1.60;1.50;;;5.10;99.90;;;;;;4930591;29;20194;-90
2024/02/03 02:16:51;;;;;;;2.28;2.08;;;5.00;99.90;;;;;;4937620;29;20196;-89
2024/02/03 02:19:19;;;;;;;2.30;1.40;;;5.00;99.90;;;;;;4938859;29;20675;-90
2024/02/03 02:21:45;;;;;;;2.00;1.80;;;;;;;;;;4933571;29;20193;-89
2024/02/03 02:24:12;;;;;;;2.55;1.95;;;5.00;99.90;;;;;;4932700;29;20719;-88
2024/02/03 02:26:38;;;;;;;2.33;1.98;;;;;;;;;;4933889;29;20223;-89
2024/02/03 02:29:04;;;;;;;1.95;1.85;;;;;;;;;;4932860;29;20221;-89
2024/02/03 02:31:31;;;;;;;5.40;1.98;;;5.20;99.90;;;;;;4939577;29;20185;-88
2024/02/03 02:33:57;;;;;;;2.30;2.03;;;;;;;;;;4936517;29;20207;-89
2024/02/03 02:36:23;;;;;;;1.67;1.58;;;;;;;;;;4931172;29;20601;-89
2024/02/03 02:38:49;;;;;;;2.50;1.48;;;;;;;;;;4933618;29;20200;-90
2024/02/03 02:41:14;;;;;;;2.85;1.75;;;5.20;99.90;;;;;;4930683;29;20186;-89
2024/02/03 02:43:40;;;;;;;3.43;1.70;;;;;;;;;;4932878;29;20279;-90
2024/02/03 02:46:07;;;;;;;2.00;1.70;;;4.80;99.90;;;;;;4932957;29;20210;-88
2024/02/03 02:48:33;;;;;;;1.70;1.50;;;;;;;;;;4933955;29;20189;-88
2024/02/03 02:50:59;;;;;;;2.25;1.63;;;4.90;99.90;;;;;;4933410;29;20216;-90
2024/02/03 02:53:25;;;;;;;1.60;1.50;;;;;;;;;;4933818;29;20195;-90
2024/02/03 02:55:51;;;;;;;1.67;1.58;;;5.10;99.90;;;;;;4933973;29;20229;-88
2024/02/03 02:58:17;;;;;;;1.77;1.67;;;;;;;;;;4932543;29;20194;-88
2024/02/03 03:00:45;;;;;;;1.73;1.60;;;5.00;99.90;;;;;;4932464;29;20285;-90
2024/02/03 03:03:11;;;;;;;3.17;1.80;;;;;;;;;;4935654;29;20200;-89
2024/02/03 03:05:36;;;;;;;1.42;1.33;;;4.80;99.90;;;;;;4931551;28;20245;-89
2024/02/03 03:08:05;;;;;;;2.30;2.10;;;4.90;99.90;;;;;;4933181;29;20285;-88
2024/02/03 03:10:31;;;;;;;1.90;1.70;;;;;;;;;;4934050;29;20247;-89
2024/02/03 03:12:57;;;;;;;1.65;1.55;;;;;;;;;;4933256;29;20533;-89
2024/02/03 03:15:23;;;;;;;2.15;2.05;;;;;;;;;;4931343;29;21280;-88
2024/02/03 03:17:49;;;;;;;2.10;1.90;;;;;;;;;;4938427;29;20226;-89
2024/02/03 03:20:15;;;;;;;1.65;1.55;;;;;;;;;;4934881;29;20192;-88
2024/02/03 03:22:41;;;;;;;1.80;1.63;;;;;;;;;;4933757;29;20192;-90
2024/02/03 03:25:07;;;;;;;2.28;1.85;;;4.50;99.90;;;;;;4942504;29;20220;-89
2024/02/03 03:27:32;;;;;;;2.10;1.90;;;4.30;99.90;;;;;;4936013;29;20203;-90
2024/02/03 03:29:58;;;;;;;1.60;1.50;;;;;;;;;;4932717;29;20215;-88
2024/02/03 03:32:24;;;;;;;1.92;1.77;;;4.30;99.90;;;;;;4932140;29;20179;-90
2024/02/03 03:34:50;;;;;;;3.83;1.60;;;;;;;;;;4931857;29;20927;-89
2024/02/03 03:37:16;;;;;;;1.77;1.50;;;;;;;;;;4933940;29;20192;-89
2024/02/03 03:39:42;;;;;;;1.55;1.45;;;;;;;;;;4932691;29;20597;-90
2024/02/03 03:42:08;;;;;;;1.80;1.70;;;;;;;;;;4931937;29;20191;-90
2024/02/03 03:44:34;;;;;;;1.93;1.83;;;;;;;;;;4930255;29;21004;-90
2024/02/03 03:47:00;;;;;;;1.85;1.60;;;;;;;;;;4932893;29;20452;-90
2024/02/03 03:49:31;;;;;;;3.40;1.65;;;;;;;;;;4929830;29;20212;-88
2024/02/03 03:51:58;;;;;;;3.10;1.70;;;;;;;;;;4948382;28;20193;-89
2024/02/03 03:54:25;;;;;;;2.50;2.00;;;4.20;99.90;;;;;;4990832;23;20451;-89
2024/02/03 03:56:51;;;;;;;2.10;1.90;;;;;;;;;;4919714;29;20277;-88
2024/02/03 03:59:17;;;;;;;2.20;1.80;;;;;;;;;;4914795;29;20193;-86
2024/02/03 04:01:50;;;;;;;2.80;1.47;;;4.00;99.90;;;;;;4934183;29;20809;-87
2024/02/03 04:04:17;;;;;;;1.60;1.50;;;4.10;99.90;;;;;;4912994;29;21026;-89
2024/02/03 04:06:43;;;;;;;2.05;1.85;;;3.30;99.90;;;;;;4933535;29;20247;-86
2024/02/03 04:09:10;;;;;;;1.67;1.47;;;4.10;99.90;;;;;;4934451;29;20297;-87
2024/02/03 04:11:37;;;;;;;1.58;1.48;;;3.10;99.90;;;;;;4920502;29;20992;-87
2024/02/03 04:14:03;;;;;;;1.73;1.63;;;;;;;;;;4916178;29;20190;-87
2024/02/03 04:16:29;;;;;;;2.17;1.63;;;;;;;;;;4932104;29;20269;-86
2024/02/03 04:18:55;;;;;;;2.30;1.80;;;;;;;;;;4933662;29;20752;-87
2024/02/03 04:21:21;;;;;;;2.03;1.60;;;;;;;;;;4918959;29;20192;-87
2024/02/03 04:23:47;;;;;;;1.35;1.23;;;;;;;;;;4920219;29;20192;-88
2024/02/03 04:26:13;;;;;;;1.38;1.27;;;4.00;99.90;;;;;;4934898;28;20679;-86
2024/02/03 04:28:39;;;;;;;1.83;1.60;;;;;;;;;;4918162;29;20192;-86
2024/02/03 04:31:05;;;;;;;1.73;1.63;;;4.10;99.90;;;;;;4918310;29;20213;-87
2024/02/03 04:33:31;;;;;;;2.42;2.22;;;;;;;;;;4918928;29;20452;-87
2024/02/03 04:35:57;;;;;;;6.15;1.60;;;;;;;;;;4919312;29;20752;-87
2024/02/03 04:38:23;;;;;;;4.40;2.10;;;;;;;;;;4917975;29;20191;-87
2024/02/03 04:40:51;;;;;;;2.13;1.73;;;4.00;99.90;;;;;;4936352;29;20515;-86
2024/02/03 04:43:17;;;;;;;1.98;1.30;;;;;;;;;;4933573;29;20643;-88
2024/02/03 04:45:43;;;;;;;1.83;1.35;;;;;;;;;;4932351;29;20222;-85
2024/02/03 04:48:09;;;;;;;2.03;1.83;;;3.60;99.90;;;;;;4929367;29;20219;-87
2024/02/03 04:50:35;;;;;;;2.10;1.90;;;;;;;;;;4916286;29;20259;-87
2024/02/03 04:53:01;;;;;;;1.75;1.63;;;;;;;;;;4934735;29;20611;-86
2024/02/03 04:55:26;;;;;;;2.00;1.80;;;3.50;99.90;;;;;;4927876;29;20276;-87
2024/02/03 04:57:52;;;;;;;2.23;1.80;;;;;;;;;;4918026;29;20669;-87
2024/02/03 05:00:18;;;;;;;1.95;1.85;;;3.70;99.90;;;;;;4914397;29;20188;-85
2024/02/03 05:02:44;;;;;;;1.60;1.50;;;;;;;;;;4934527;29;20248;-86
2024/02/03 05:05:10;;;;;;;1.50;1.40;;;;;;;;;;4934983;29;20463;-85
2024/02/03 05:07:36;;;;;;;2.75;2.00;;;;;;;;;;4934477;29;20444;-87
2024/02/03 05:10:02;;;;;;;1.83;1.67;;;;;;;;;;4934187;29;20267;-87
2024/02/03 05:12:28;;;;;;;1.98;1.35;;;3.70;99.90;;;;;;4921431;29;20184;-86
2024/02/03 05:14:54;;;;;;;2.05;1.60;;;;;;;;;;4936222;28;20227;-86
2024/02/03 05:17:20;;;;;;;3.00;1.75;;;3.90;99.90;;;;;;4935725;29;20252;-86
2024/02/03 05:19:46;;;;;;;1.67;1.57;;;;;;;;;;4917453;29;20198;-86
2024/02/03 05:22:11;;;;;;;2.07;1.87;;;3.50;99.90;;;;;;4936204;29;20654;-85
2024/02/03 05:24:37;;;;;;;2.30;1.37;;;;;;;;;;4913138;29;20500;-86
2024/02/03 05:27:03;;;;;;;3.13;2.10;;;;;;;;;;4931768;29;20228;-87
2024/02/03 05:29:29;;;;;;;2.00;1.80;;;;;;;;;;4918066;29;20479;-87
2024/02/03 05:31:55;;;;;;;2.73;2.27;;;;;;;;;;4934494;29;20190;-86
2024/02/03 05:34:20;;;;;;;5.35;1.73;;;3.40;99.90;;;;;;4930100;29;20448;-87
2024/02/03 05:36:46;;;;;;;2.23;2.03;;;2.90;99.90;;;;;;4930255;29;20192;-87
2024/02/03 05:39:11;;;;;;;2.50;1.93;;;3.60;99.90;;;;;;4919674;29;20196;-86
2024/02/03 05:41:37;;;;;;;1.73;1.63;;;3.20;99.90;;;;;;4920721;29;20244;-86
2024/02/03 05:44:03;;;;;;;2.17;1.60;;;3.80;99.90;;;;;;4919391;29;20702;-86
2024/02/03 05:46:28;;;;;;;1.60;1.47;;;3.50;99.90;;;;;;4912407;29;20216;-86
2024/02/03 05:48:54;;;;;;;2.07;1.87;;;3.50;99.90;;;;;;4918005;29;20184;-86
2024/02/03 05:51:20;;;;;;;2.70;2.50;;;3.30;99.90;;;;;;4914688;29;20196;-87
2024/02/03 05:53:45;;;;;;;2.00;1.80;;;3.00;99.90;;;;;;4933573;29;20563;-86
2024/02/03 05:56:11;;;;;;;1.70;1.60;;;3.50;99.90;;;;;;4930406;28;20254;-87
2024/02/03 05:58:36;;;;;;;2.03;1.70;;;3.50;99.90;;;;;;4930894;29;20206;-87
2024/02/03 06:01:02;;;;;;;1.90;1.80;;;3.60;99.90;;;;;;4932304;29;20253;-87
2024/02/03 06:03:27;;;;;;;2.80;1.80;;;3.70;99.90;;;;;;4914706;29;20192;-86
2024/02/03 06:05:53;;;;;;;2.20;2.00;;;3.30;99.90;;;;;;4919767;29;20815;-86
2024/02/03 06:08:18;;;;;;;3.47;1.83;;;3.70;99.90;;;;;;4923413;29;20193;-86
2024/02/03 06:10:44;;;;;;;1.60;1.50;;;3.50;99.90;;;;;;4938218;29;20230;-86
2024/02/03 06:13:10;;;;;;;2.60;1.90;;;2.80;99.90;;;;;;4933036;29;20262;-86
2024/02/03 06:15:35;;;;;;;2.97;2.50;;;3.50;99.90;;;;;;4948664;28;20219;-86
2024/02/03 06:18:01;;;;;;;1.90;1.80;;;3.50;99.90;;;;;;4957591;28;20181;-86
2024/02/03 06:20:26;;;;;;;2.07;1.87;;;3.90;99.90;;;;;;4943836;29;20203;-86
2024/02/03 06:22:52;;;;;;;2.47;2.00;;;3.90;99.90;;;;;;4939686;29;20182;-87
2024/02/03 06:25:17;;;;;;;2.03;1.80;;;3.50;99.90;;;;;;4930463;29;20204;-86
2024/02/03 06:27:43;;;;;;;2.23;2.00;;;3.90;99.90;;;;;;4926075;29;20189;-86
2024/02/03 06:30:08;;;;;;;2.17;2.00;;;3.30;99.90;;;;;;4919599;29;20688;-86
2024/02/03 06:32:34;;;;;;;2.33;1.97;;;3.50;99.90;;;;;;4919405;29;20239;-86
2024/02/03 06:35:00;;;;;;;2.70;2.00;;;3.50;99.90;;;;;;4917510;29;20476;-86
2024/02/03 06:37:25;;;;;;;2.50;2.10;;;3.60;99.90;;;;;;4919210;29;20646;-86
2024/02/03 06:39:51;;;;;;;2.70;2.00;;;3.40;99.90;;;;;;4916918;29;20191;-86
2024/02/03 06:42:16;;;;;;;2.83;2.07;;;3.20;99.90;;;;;;4931877;29;20223;-86
2024/02/03 06:44:42;;;;;;;3.13;2.20;;;3.60;99.90;;;;;;4926184;29;20312;-86
2024/02/03 06:47:07;;;;;;;2.47;1.80;;;3.60;99.90;;;;;;4916774;29;20481;-86
2024/02/03 06:49:33;;;;;;;3.33;2.40;;;3.90;99.90;;;;;;4915963;29;20332;-86
2024/02/03 06:51:59;;;;;;;1.83;1.73;;;3.50;99.90;;;;;;4916741;29;20185;-86
2024/02/03 06:54:24;;;;;;;2.80;2.30;;;3.60;99.90;;;;;;4917440;29;20665;-86
2024/02/03 06:56:50;;;;;;;3.40;2.33;;;3.00;99.90;;;;;;4913550;29;20199;-86
2024/02/03 06:59:15;;;;;;;2.23;1.67;;;3.60;99.90;;;;;;4916649;29;20670;-86
2024/02/03 07:01:41;;;;;;;1.90;1.70;;;4.00;99.90;;;;;;4913575;29;20192;-86
2024/02/03 07:04:06;;;;;;;2.40;2.20;;;3.70;99.90;;;;;;4918077;29;20188;-87
2024/02/03 07:06:32;;;;;;;2.60;1.93;;;3.40;99.90;;;;;;4916819;29;20296;-87
2024/02/03 07:08:57;;;;;;;2.17;1.90;;;3.60;99.90;;;;;;4916135;29;20188;-87
2024/02/03 07:11:23;;;;;;;2.27;2.10;;;4.00;99.90;;;;;;4913999;29;20765;-88
2024/02/03 07:13:48;;;;;;;2.47;2.27;;;3.60;99.90;;;;;;4922417;29;21005;-87
2024/02/03 07:16:14;;;;;;;3.63;2.30;;;3.60;99.90;;;;;;4933704;29;20215;-87
2024/02/03 07:18:40;;;;;;;2.45;2.25;;;3.60;99.90;;;;;;4919365;29;20189;-87
2024/02/03 07:21:09;;;;;;;1.77;1.63;;;3.50;99.90;;;;;;4918199;29;20193;-87
2024/02/03 07:23:34;;;;;;;2.38;2.17;;;3.70;99.90;;;;;;4914613;29;20206;-86
2024/02/03 07:26:00;;;;;;;3.30;2.43;;;3.30;99.90;;;;;;4920007;29;20756;-86
2024/02/03 07:28:26;;;;;;;2.60;2.40;;;3.50;99.90;;;;;;4915766;29;20271;-87
2024/02/03 07:30:51;;;;;;;3.10;2.60;;;3.80;99.90;;;;;;4916100;29;20208;-87
2024/02/03 07:33:17;;;;;;;3.27;2.97;;;3.60;99.90;;;;;;4929217;29;20215;-87
2024/02/03 07:35:42;;;;;;;2.50;2.30;;;3.10;99.90;;;;;;4926430;29;20292;-86
2024/02/03 07:38:08;;;;;;;2.53;2.33;;;3.80;99.90;;;;;;4921013;29;20259;-87
2024/02/03 07:40:33;;;;;;;2.43;2.23;;;3.50;99.90;;;;;;4918362;29;20700;-87
2024/02/03 07:42:58;;;;;;;3.13;2.90;;;3.60;99.90;;;;;;4915764;29;20204;-88
2024/02/03 07:45:24;;;;;;;2.83;2.60;;;3.90;99.90;;;;;;4935082;28;20216;-87
2024/02/03 07:47:50;;;;;;;2.50;2.30;;;3.90;99.90;;;;;;4920328;29;20197;-89
2024/02/03 07:50:15;;;;;;;4.67;3.60;;;3.90;99.90;;;;;;4932702;29;20222;-88
2024/02/03 07:52:40;;;;;;;3.10;2.80;;;3.90;99.90;;;;;;4935302;29;20208;-90
2024/02/03 07:55:06;;;;;;;3.43;2.67;;;4.60;99.90;;;;;;4912508;29;20229;-89
2024/02/03 07:57:33;;;;;;;3.57;2.97;;;4.40;99.90;;;;;;4918255;29;20184;-89
2024/02/03 07:59:59;;;;;;;5.03;3.55;;;4.40;99.90;;;;;;4916575;29;20463;-90
2024/02/03 08:02:24;;;;;;;3.63;3.10;;;4.50;99.90;;;;;;4916680;29;20194;-89
2024/02/03 08:04:53;;;;;;;4.40;2.90;;;4.50;99.90;;;;;;4916787;29;20209;-89
2024/02/03 08:07:23;;;;;;;5.85;3.70;;;4.70;99.90;;;;;;4934889;29;20206;-91
2024/02/03 08:09:49;;;;;;;4.18;3.78;;;4.80;99.90;;;;;;4925390;29;20206;-91
2024/02/03 08:12:15;;;;;;;4.43;3.80;;;5.00;99.90;;;;;;4919452;29;20199;-89
2024/02/03 08:14:51;;;;;;;4.00;3.60;;;5.10;99.90;;;;;;4925119;29;20447;-91
2024/02/03 08:17:27;;;;;;;4.28;3.85;;;5.20;99.90;;;;;;4931315;29;20194;-92
2024/02/03 08:20:06;;;;;;;;;;;;;;;;;;;;;
2024/02/03 08:22:33;;;;;;;6.10;4.57;;;7.40;99.90;;;;;;4898816;29;20261;-90
2024/02/03 08:24:59;;;;;;;4.30;3.53;;;;;;;;;;4925485;29;20238;-87
2024/02/03 08:27:45;;;;;;;6.15;4.53;;;5.70;99.90;;;;;;4914570;29;20190;-89
2024/02/03 08:30:43;;;;;;;;;;;;;;;;;;;;;
2024/02/03 08:33:25;;;;;;;5.18;4.35;;;5.70;99.90;;;;;;4920487;29;20672;-91
2024/02/03 08:36:32;;;;;;;10.88;4.65;;;8.10;99.90;;;;;;4942005;29;20210;-91
2024/02/03 08:39:28;;;;;;;6.57;4.07;;;5.40;99.90;;;;;;4919135;29;20209;-90
2024/02/03 08:42:06;;;;;;;5.05;4.40;;;6.40;99.90;;;;;;4907659;29;20191;-91
2024/02/03 08:44:37;;;;;;;5.65;3.72;;;6.90;99.90;;;;;;4914746;29;20174;-89
2024/02/03 08:47:06;;;;;;;4.72;3.80;;;7.10;99.90;;;;;;4916212;29;20186;-91
2024/02/03 08:49:36;;;;;;;4.47;4.07;;;7.00;99.90;;;;;;4929771;29;20206;-91
2024/02/03 08:52:05;;;;;;;6.88;4.90;;;8.30;99.90;;;;;;4917935;29;20191;-89
2024/02/03 08:57:24;;;;;;;8.55;5.88;;;6.70;99.90;;;;;;4935193;29;20213;-91
2024/02/03 08:59:50;;;;;;;6.50;5.10;;;10.00;99.90;;;;;;4893018;29;20209;-90
2024/02/03 09:02:16;;;;;;;4.53;4.13;;;8.80;99.90;;;;;;4936429;29;20203;-92
2024/02/03 09:04:49;;;;;;;5.70;4.38;;;7.00;99.90;;;;;;4939633;29;20358;-91
2024/02/03 09:07:17;;;;;;;5.07;4.57;;;9.90;99.90;;;;;;4940343;29;20197;-90
2024/02/03 09:09:43;;;;;;;5.75;4.80;;;7.80;99.90;;;;;;4939399;29;20201;-92
2024/02/03 09:12:10;;;;;;;5.38;4.50;;;9.20;99.90;;;;;;4943984;29;20190;-92
2024/02/03 09:14:36;;;;;;;5.30;4.80;;;7.70;99.90;;;;;;4941310;29;20281;-91
2024/02/03 09:17:11;;;;;;;6.90;4.50;;;7.40;99.90;;;;;;4946623;29;20194;-91
2024/02/03 09:19:36;;;;;;;7.78;4.97;;;7.70;99.90;;;;;;4936853;29;20508;-85
2024/02/03 09:22:13;;;;;;;6.47;5.20;;;9.10;99.90;;;;;;4944803;29;20189;-86
2024/02/03 09:24:41;;;;;;;7.20;5.80;;;9.60;99.90;;;;;;4939031;29;21202;-85
2024/02/03 09:27:07;;;;;;;6.18;5.18;;;7.80;99.90;;;;;;4937528;29;20974;-90
2024/02/03 09:29:33;;;;;;;5.72;4.88;;;9.20;99.90;;;;;;4935310;29;20206;-89
2024/02/03 09:32:00;;;;;;;6.13;5.20;;;;;;;;;;4938339;28;20200;-90
2024/02/03 09:34:26;;;;;;;8.20;6.85;;;8.40;99.90;;;;;;4940484;29;20415;-90
2024/02/03 09:36:52;;;;;;;5.70;5.20;;;7.20;99.90;;;;;;4935122;29;20185;-88
2024/02/03 09:39:17;;;;;;;6.87;5.73;;;7.50;99.90;;;;;;4936377;29;20182;-88
2024/02/03 09:41:43;;;;;;;11.00;6.83;;;9.60;99.90;;;;;;4936126;29;20621;-88
2024/02/03 09:44:09;;;;;;;8.77;6.53;;;10.70;99.90;;;;;;4936355;29;20281;-89
2024/02/03 09:46:35;;;;;;;6.17;5.63;;;8.40;99.90;;;;;;4933178;29;20645;-91
2024/02/03 09:49:01;;;;;;;12.40;6.80;;;9.80;99.90;;;;;;4937342;29;20187;-90
2024/02/03 09:51:30;;;;;;;10.00;6.37;;;8.70;99.90;;;;;;4933847;29;20189;-90
2024/02/03 09:53:57;;;;;;;7.70;5.90;;;8.00;99.90;;;;;;4936196;29;20178;-93
2024/02/03 09:56:39;;;;;;;5.57;5.03;;;9.90;99.90;;;;;;4941623;29;20218;-94
2024/02/03 09:59:04;;;;;;;7.00;6.15;;;9.50;99.90;;;;;;4947756;28;20202;-89
2024/02/03 10:01:30;;;;;;;7.03;6.33;;;8.50;99.90;;;;;;4934750;29;20198;-89
2024/02/03 10:03:57;;;;;;;6.37;5.27;;;11.10;99.90;;;;;;4935490;29;20289;-89
2024/02/03 10:06:22;;;;;;;4.40;4.00;;;8.90;99.90;;;;;;4933544;29;20211;-90
2024/02/03 10:08:53;;;;;;;3.60;3.30;;;9.90;99.90;;;;;;4935959;29;20202;-89
2024/02/03 10:11:19;;;;;;;4.03;3.60;;;10.40;99.90;;;;;;4930996;29;20218;-89
2024/02/03 10:14:00;;;;;;;4.03;3.63;;;10.30;99.90;;;;;;4917106;29;20673;-89
2024/02/03 10:16:25;;;;;;;4.18;3.80;;;10.20;99.90;;;;;;4931476;29;20205;-89
2024/02/03 10:22:48;;;;;;;;;;;;;;;;;;;;;
2024/02/03 10:25:14;;;;;;;4.90;3.13;;;11.10;99.90;;;;;;4943070;29;20706;-94
2024/02/03 10:28:18;;;;;;;4.23;3.83;;;10.60;99.90;;;;;;4943988;28;20192;-92
2024/02/03 10:31:13;;;;;;;4.30;3.88;;;13.00;99.90;;;;;;4938407;29;20559;-92
2024/02/03 10:33:58;;;;;;;4.15;3.75;;;11.00;99.90;;;;;;4929079;29;20196;-91
2024/02/03 10:37:00;;;;;;;;;;;;;;;;;;;;;
2024/02/03 10:39:32;;;;;;;;;;;;;;;;;;;;;
2024/02/03 10:42:05;;;;;;;3.00;2.70;;;10.60;99.90;;;;;;4936978;29;20658;-90
2024/02/03 10:48:14;;;;;;;;;;;;;;;;;;;;;
2024/02/03 10:51:36;;;;;;;;;;;;;;;;;;;;;
2024/02/03 10:54:50;;;;;;;4.15;3.47;;;11.00;99.90;;;;;;4932957;29;20201;-90
2024/02/03 10:58:08;;;;;;;;;;;;;;;;;;;;;
2024/02/03 11:01:01;;;;;;;;;;;;;;;;;;;;;
2024/02/03 11:07:34;;;;;;;;;;;;;;;;;;;;;
2024/02/03 11:14:02;;;;;;;;;;;;;;;;;;;;;
2024/02/03 11:20:49;;;;;;;;;;;;;;;;;;;;;
2024/02/03 11:23:39;;;;;;;2.80;2.60;;;11.50;99.90;;;;;;4933096;29;20221;-89
2024/02/03 11:27:10;;;;;;;;;;;;;;;;;;;;;
2024/02/03 11:30:07;;;;;;;2.90;2.70;;;13.90;99.90;;;;;;4928134;29;20568;-90
2024/02/03 11:36:13;;;;;;;;;;;;;;;;;;;;;
2024/02/03 11:39:07;;;;;;;;;;;;;;;;;;;;;
2024/02/03 11:41:41;;;;;;;3.63;3.25;;;12.30;99.90;;;;;;4935352;29;20196;-89
2024/02/03 11:44:43;;;;;;;;;;;;;;;;;;;;;
2024/02/03 11:47:44;;;;;;;3.00;2.80;;;12.40;99.90;;;;;;4928425;29;20185;-88
2024/02/03 11:50:10;;;;;;;4.80;3.28;;;12.10;99.90;;;;;;4928139;29;20865;-88
2024/02/03 11:53:03;;;;;;;3.83;3.07;;;13.00;99.90;;;;;;4937724;29;20183;-92
2024/02/03 11:55:45;;;;;;;3.10;2.80;;;12.60;99.90;;;;;;4940170;29;20238;-92
2024/02/03 11:58:14;;;;;;;2.60;2.40;;;13.30;99.90;;;;;;4945012;29;20191;-90
2024/02/03 14:34:08;;;;;;;4.40;4.00;;;;;;;;;;4954590;28;20463;-84
2024/02/03 14:36:35;;;;;;;0.95;0.82;;;13.20;99.30;;;;;;4973846;28;20902;-92
2024/02/03 14:39:00;;;;;;;1.35;1.25;;;14.20;99.90;;;;;;4963509;28;20192;-92
2024/02/03 14:41:26;;;;;;;1.40;0.73;;;13.60;99.90;;;;;;4957670;28;20188;-92
2024/02/03 14:43:51;;;;;;;4.93;0.90;;;13.30;99.90;;;;;;4959517;28;20582;-91
2024/02/03 14:46:17;;;;;;;1.17;0.80;;;13.90;99.90;;;;;;4962970;28;20288;-90
2024/02/03 14:48:43;;;;;;;0.80;0.70;;;;;;;;;;4962636;28;20211;-90
2024/02/03 14:51:09;;;;;;;1.10;0.77;;;12.90;98.70;;;;;;4954536;28;20219;-91
2024/02/03 14:53:34;;;;;;;1.90;0.80;;;15.20;99.90;;;;;;4962325;28;20476;-90
2024/02/03 14:56:00;;;;;;;4.03;0.93;;;;;;;;;;4976471;28;20213;-89
2024/02/03 14:58:26;;;;;;;2.40;1.83;;;12.60;98.80;;;;;;4967476;28;20188;-83
2024/02/03 15:00:52;;;;;;;0.80;0.70;;;14.70;99.90;;;;;;4965896;28;20208;-83
2024/02/03 15:03:17;;;;;;;1.00;0.90;;;13.20;99.90;;;;;;4965855;28;20243;-83
2024/02/03 15:05:43;;;;;;;1.90;1.20;;;13.10;99.30;;;;;;4966519;28;20201;-83
2024/02/03 15:08:09;;;;;;;1.17;0.90;;;12.50;99.60;;;;;;4958493;28;20679;-82
2024/02/03 15:10:35;;;;;;;1.20;0.75;;;12.30;99.20;;;;;;4961215;28;20268;-82
2024/02/03 15:13:02;;;;;;;14.87;8.10;;;12.40;99.00;;;;;;4958684;28;20268;-82
2024/02/03 15:15:27;;;;;;;0.90;0.85;;;12.70;99.90;;;;;;4957386;28;20201;-89
2024/02/03 15:17:53;;;;;;;1.80;1.40;;;13.50;99.90;;;;;;4972211;28;20286;-89
2024/02/03 15:20:19;;;;;;;0.80;0.80;;;13.00;98.40;;;;;;4958133;28;20196;-91
2024/02/03 15:22:45;;;;;;;0.82;0.60;;;13.00;98.30;;;;;;4942337;29;20717;-91
2024/02/03 15:25:10;;;;;;;0.97;0.97;;;13.00;98.50;;;;;;4975965;28;20819;-91
2024/02/03 15:27:36;;;;;;;1.37;1.20;;;12.80;98.20;;;;;;4952478;28;20192;-91
2024/02/03 15:30:02;;;;;;;1.10;1.00;;;12.50;98.80;;;;;;4969786;28;20208;-91
2024/02/03 15:32:32;;;;;;;2.60;1.00;;;12.50;99.00;;;;;;4937798;28;20247;-91
2024/02/03 15:34:57;;;;;;;2.35;1.60;;;13.30;99.90;;;;;;4949953;28;20216;-90
2024/02/03 15:37:23;;;;;;;3.00;1.77;;;12.30;99.90;;;;;;4970009;28;20185;-90
2024/02/03 15:39:50;;;;;;;2.17;1.53;;;11.30;99.90;;;;;;4968207;28;20197;-91
2024/02/03 15:42:17;;;;;;;0.70;0.70;;;12.00;99.90;;;;;;4969027;28;20188;-90
2024/02/03 15:44:44;;;;;;;1.83;1.10;;;13.00;99.90;;;;;;4968716;28;20208;-90
2024/02/03 15:47:10;;;;;;;1.10;1.00;;;11.60;99.90;;;;;;4958276;28;20181;-90
2024/02/03 15:49:38;;;;;;;1.17;0.80;;;13.20;99.90;;;;;;4949760;28;20232;-89
2024/02/03 15:52:04;;;;;;;1.10;1.00;;;12.80;99.90;;;;;;4981450;28;20188;-89
2024/02/03 15:54:33;;;;;;;1.63;0.90;;;11.50;99.90;;;;;;4981092;28;20224;-90
2024/02/03 15:56:58;;;;;;;1.30;1.00;;;11.60;99.90;;;;;;4953465;28;20436;-89
2024/02/03 15:59:24;;;;;;;1.63;0.87;;;11.80;99.90;;;;;;4973942;28;20220;-89
2024/02/03 16:01:50;;;;;;;1.33;1.03;;;11.40;99.90;;;;;;4954947;28;20260;-89
2024/02/03 16:04:15;;;;;;;0.93;0.80;;;11.70;99.90;;;;;;4955230;28;20681;-91
2024/02/03 16:06:41;;;;;;;2.33;1.50;;;11.30;99.90;;;;;;4960409;28;20590;-90
2024/02/03 16:09:06;;;;;;;1.00;0.90;;;10.70;99.90;;;;;;4955818;28;20195;-89
2024/02/03 16:11:32;;;;;;;1.00;0.83;;;11.20;99.90;;;;;;4957840;28;20228;-90
2024/02/03 16:13:58;;;;;;;1.20;0.80;;;10.80;99.90;;;;;;4955451;28;20191;-88
2024/02/03 16:16:24;;;;;;;1.00;0.82;;;11.00;99.90;;;;;;4957476;28;20571;-90
2024/02/03 16:18:50;;;;;;;0.87;0.87;;;11.40;99.90;;;;;;4957575;28;20232;-88
2024/02/03 16:21:15;;;;;;;0.70;0.70;;;11.20;99.90;;;;;;4961036;28;20451;-91
2024/02/03 16:23:41;;;;;;;1.37;1.27;;;10.80;99.90;;;;;;4958650;28;21010;-90
2024/02/03 16:26:07;;;;;;;1.30;1.13;;;11.10;99.90;;;;;;4956897;28;20230;-91
2024/02/03 16:28:33;;;;;;;1.10;1.00;;;10.90;99.90;;;;;;4958548;28;20218;-89
2024/02/03 16:30:59;;;;;;;1.30;1.00;;;10.80;99.90;;;;;;4965891;28;20210;-91
2024/02/03 16:33:24;;;;;;;1.70;0.77;;;10.10;99.90;;;;;;4983080;28;20265;-90
2024/02/03 16:35:50;;;;;;;1.70;1.07;;;11.00;99.90;;;;;;4956043;28;20298;-89
2024/02/03 16:38:16;;;;;;;2.60;1.67;;;10.90;99.90;;;;;;4956752;28;20187;-90
2024/02/03 16:40:41;;;;;;;1.40;1.30;;;10.80;99.90;;;;;;4952482;28;20202;-89
2024/02/03 16:43:07;;;;;;;1.43;1.33;;;10.70;99.90;;;;;;4956768;28;20185;-90
2024/02/03 16:45:32;;;;;;;2.30;1.80;;;11.00;99.90;;;;;;4959126;28;20668;-90
2024/02/03 16:47:58;;;;;;;2.80;1.60;;;11.10;99.90;;;;;;4960095;28;20250;-89